This is the latest recevied weather packets stored in our database for station/object HA5KDQ-10. If no packets are shown the sender has not sent any weather packets the latest 10 day(s).
| Time | Temp. | Humidity | Pressure | Rain* | Wind** | Luminosity | Snow |
|---|---|---|---|---|---|---|---|
| 1777943342 | 18.33° C | 25% | 958.8 hPa | - | - | - | - |
| 1777939742 | 18.33° C | 25% | 959.2 hPa | - | - | - | - |
| 1777936141 | 18.89° C | 24% | 959.5 hPa | - | - | - | - |
| 1777932540 | 19.44° C | 23% | 959.8 hPa | - | - | - | - |
| 1777928939 | 20° C | 21% | 959.9 hPa | - | - | - | - |
| 1777925338 | 20.56° C | 21% | 959.9 hPa | - | - | - | - |
| 1777921736 | 21.11° C | 20% | 960 hPa | - | - | - | - |
| 1777918155 | 21.67° C | 20% | 959.7 hPa | - | - | - | - |
| 1777914555 | 23.89° C | 18% | 959.9 hPa | - | - | - | - |
| 1777910953 | 26.11° C | 16% | 960 hPa | - | - | - | - |
| 1777907352 | 26.67° C | 16% | 960.3 hPa | - | - | - | - |
| 1777903751 | 30.56° C | 14% | 960.7 hPa | - | - | - | - |
| 1777900150 | 30.56° C | 13% | 961.4 hPa | - | - | - | - |
| 1777896549 | 30.56° C | 14% | 962 hPa | - | - | - | - |
| 1777892948 | 31.11° C | 14% | 962.4 hPa | - | - | - | - |
| 1777889347 | 28.89° C | 16% | 963 hPa | - | - | - | - |
| 1777885746 | 29.44° C | 15% | 963.5 hPa | - | - | - | - |
| 1777882145 | 28.33° C | 16% | 963.7 hPa | - | - | - | - |
| 1777878544 | 28.89° C | 17% | 963.6 hPa | - | - | - | - |
| 1777874943 | 27.22° C | 19% | 963.3 hPa | - | - | - | - |
| 1777871342 | 24.44° C | 21% | 963.1 hPa | - | - | - | - |
| 1777867741 | 19.44° C | 26% | 962.6 hPa | - | - | - | - |
| 1777864140 | 14.44° C | 32% | 962.4 hPa | - | - | - | - |
| 1777860540 | 14.44° C | 32% | 962.3 hPa | - | - | - | - |
| 1777856939 | 14.44° C | 32% | 962.5 hPa | - | - | - | - |
* Rain since midnight (hover to see other rain measurements)
** Current wind speed in m/s (hover to see current wind gust speed)